Victoria Beach, Canada
Current Conditions -  °F | °C
As of 12:00 AM on Tuesday 21 Oct 2014 (Local Time) from CYWG Reporting Station
Clear Clear  
Wind Chill: 36°   Ceiling: Unl
Heat Index: 43°   Visibility: 15mi
Dew Point: 37°   Wind: 14mph
Humidity: 81%   Direction: 150°SSE
Pressure: 30.04"   Gusts: NA
Location:  50.7°N, 96.53°W
Report Text: CYWG 210500Z 15012KT 15SM SKC 06/03 A3004 RMK SLP181
Loading
Personal Weather Stations






























Interactive Weather Map
Tropical Storm Tracking
New forecast layout! Learn more

10-Day Weather Forecast

Advertisements
Track Severe Weather on mobile